createdAt,value
2023-03-21T00:00:42.308Z,7.20
2023-03-21T00:03:09.168Z,9.70
2023-03-21T00:05:41.284Z,7.63
2023-03-21T00:08:08.274Z,8.90
2023-03-21T00:10:41.186Z,7.20
2023-03-21T00:13:13.838Z,7.87
2023-03-21T00:16:04.037Z,7.80
2023-03-21T00:18:33.061Z,7.93
2023-03-21T00:21:35.579Z,8.10
2023-03-21T00:23:48.567Z,8.53
2023-03-21T00:26:16.332Z,7.67
2023-03-21T00:28:43.256Z,8.50
2023-03-21T00:31:10.264Z,7.33
2023-03-21T00:33:38.896Z,8.17
2023-03-21T00:36:07.610Z,8.73
2023-03-21T00:38:35.733Z,9.10
2023-03-21T00:41:18.865Z,7.00
2023-03-21T00:43:52.028Z,7.90
2023-03-21T00:46:19.448Z,7.40
2023-03-21T00:48:46.139Z,8.27
2023-03-21T00:51:18.596Z,7.87
2023-03-21T00:53:45.393Z,8.20
2023-03-21T00:56:12.000Z,7.53
2023-03-21T00:58:38.470Z,8.33
2023-03-21T01:01:06.660Z,8.17
2023-03-21T01:03:42.498Z,8.00
2023-03-21T01:06:13.342Z,8.30
2023-03-21T01:08:52.326Z,8.60
2023-03-21T01:11:23.102Z,7.73
2023-03-21T01:13:56.310Z,7.50
2023-03-21T01:16:27.096Z,7.67
2023-03-21T01:18:53.744Z,8.30
2023-03-21T01:21:20.407Z,8.43
2023-03-21T01:23:47.126Z,7.97
2023-03-21T01:26:15.337Z,7.83
2023-03-21T01:28:43.285Z,9.10
2023-03-21T01:31:12.392Z,8.43
2023-03-21T01:33:39.170Z,7.17
2023-03-21T01:36:12.778Z,8.20
2023-03-21T01:38:40.971Z,8.37
2023-03-21T01:41:18.735Z,8.00
2023-03-21T01:43:46.112Z,9.93
2023-03-21T01:46:26.271Z,9.67
2023-03-21T01:49:07.745Z,7.90
2023-03-21T01:51:37.716Z,8.90
2023-03-21T01:54:06.776Z,7.80
2023-03-21T01:56:36.489Z,8.90
2023-03-21T01:59:17.486Z,7.97
2023-03-21T02:01:44.992Z,7.73
2023-03-21T02:04:11.943Z,8.17
2023-03-21T02:07:09.164Z,8.53
2023-03-21T02:09:40.224Z,8.33
2023-03-21T02:12:08.790Z,7.13
2023-03-21T02:14:37.618Z,9.20
2023-03-21T02:17:10.287Z,7.30
2023-03-21T02:19:55.961Z,9.27
2023-03-21T02:22:34.265Z,7.10
2023-03-21T02:25:28.111Z,7.90
2023-03-21T02:28:09.656Z,7.90
2023-03-21T02:30:55.607Z,8.20
2023-03-21T02:33:37.430Z,8.20
2023-03-21T02:36:17.661Z,9.30
2023-03-21T02:38:54.650Z,7.90
2023-03-21T02:41:46.013Z,8.30
2023-03-21T02:44:18.469Z,8.80
2023-03-21T02:47:03.176Z,8.00
2023-03-21T02:49:44.821Z,8.20
2023-03-21T02:52:25.551Z,7.87
2023-03-21T02:54:58.884Z,9.30
2023-03-21T02:57:31.367Z,8.13
2023-03-21T03:00:16.642Z,8.53
2023-03-21T03:02:44.157Z,9.23
2023-03-21T03:05:21.278Z,9.20
2023-03-21T03:07:57.403Z,9.00
2023-03-21T03:10:26.845Z,8.50
2023-03-21T03:13:27.307Z,9.90
2023-03-21T03:15:59.850Z,9.00
2023-03-21T03:18:41.750Z,9.10
2023-03-21T03:21:18.741Z,9.40
2023-03-21T03:23:52.882Z,9.23
2023-03-21T03:26:27.212Z,10.77
2023-03-21T03:28:57.397Z,9.83
2023-03-21T03:31:33.159Z,10.03
2023-03-21T03:34:07.303Z,9.20
2023-03-21T03:36:38.975Z,9.27
2023-03-21T03:39:09.080Z,9.83
2023-03-21T03:42:27.654Z,9.80
2023-03-21T03:44:47.480Z,10.07
2023-03-21T03:47:32.724Z,9.47
2023-03-21T03:50:13.570Z,10.13
2023-03-21T03:52:55.567Z,9.73
2023-03-21T03:55:23.459Z,10.07
2023-03-21T03:57:50.068Z,8.97
2023-03-21T04:00:17.881Z,9.07
2023-03-21T04:02:45.795Z,10.53
2023-03-21T04:05:13.249Z,10.00
2023-03-21T04:07:39.767Z,10.93
2023-03-21T04:10:07.018Z,10.87
2023-03-21T04:12:33.668Z,11.37
2023-03-21T04:15:10.719Z,10.43
2023-03-21T04:17:39.620Z,11.70
2023-03-21T04:20:12.237Z,10.67
2023-03-21T04:22:42.107Z,10.97
2023-03-21T04:25:09.238Z,11.50
2023-03-21T04:27:36.294Z,12.07
2023-03-21T04:30:03.884Z,11.27
2023-03-21T04:32:34.055Z,11.90
2023-03-21T04:35:01.018Z,11.60
2023-03-21T04:37:27.992Z,13.53
2023-03-21T04:39:54.812Z,12.13
2023-03-21T04:42:21.497Z,11.73
2023-03-21T04:44:49.201Z,10.80
2023-03-21T04:47:16.898Z,12.70
2023-03-21T04:49:43.737Z,24.10
2023-03-21T04:52:10.584Z,24.77
2023-03-21T04:54:37.684Z,22.13
2023-03-21T04:57:04.818Z,19.20
2023-03-21T04:59:31.671Z,18.13
2023-03-21T05:01:58.680Z,17.50
2023-03-21T05:04:26.765Z,16.37
2023-03-21T05:06:54.380Z,15.37
2023-03-21T05:09:22.257Z,16.20
2023-03-21T05:11:49.180Z,13.73
2023-03-21T05:14:18.278Z,14.67
2023-03-21T05:16:48.643Z,12.00
2023-03-21T05:19:17.446Z,11.30
2023-03-21T05:21:45.102Z,11.20
2023-03-21T05:24:15.740Z,12.10
2023-03-21T05:26:44.035Z,13.57
2023-03-21T05:29:11.247Z,11.27
2023-03-21T05:31:37.803Z,9.60
2023-03-21T05:34:04.656Z,10.07
2023-03-21T05:36:34.057Z,10.53
2023-03-21T05:39:01.787Z,10.70
2023-03-21T05:41:28.358Z,10.20
2023-03-21T05:43:55.229Z,9.73
2023-03-21T05:46:21.832Z,10.10
2023-03-21T05:48:48.435Z,10.67
2023-03-21T05:51:15.180Z,10.40
2023-03-21T05:53:41.779Z,10.83
2023-03-21T05:56:08.919Z,9.30
2023-03-21T05:58:35.746Z,10.83
2023-03-21T06:01:02.585Z,10.00
2023-03-21T06:03:29.221Z,9.67
2023-03-21T06:05:55.968Z,9.37
2023-03-21T06:08:22.536Z,9.40
2023-03-21T06:10:49.964Z,8.60
2023-03-21T06:13:16.553Z,8.60
2023-03-21T06:15:43.235Z,8.90
2023-03-21T06:18:09.760Z,8.93
2023-03-21T06:20:36.284Z,8.53
2023-03-21T06:23:02.865Z,9.83
2023-03-21T06:25:29.359Z,10.40
2023-03-21T06:27:56.599Z,9.07
2023-03-21T06:30:23.205Z,8.87
2023-03-21T06:32:50.320Z,9.03
2023-03-21T06:35:17.032Z,8.77
2023-03-21T06:37:45.462Z,9.30
2023-03-21T06:40:13.737Z,8.97
2023-03-21T06:42:41.053Z,9.43
2023-03-21T06:45:08.221Z,8.87
2023-03-21T06:47:34.719Z,9.70
2023-03-21T06:50:01.216Z,11.20
2023-03-21T06:52:27.760Z,9.50
2023-03-21T06:54:54.283Z,9.97
2023-03-21T06:57:21.971Z,11.30
2023-03-21T06:59:48.687Z,11.40
2023-03-21T07:02:15.963Z,10.33
2023-03-21T07:04:42.984Z,10.00
2023-03-21T07:07:10.065Z,10.33
2023-03-21T07:09:36.708Z,9.77
2023-03-21T07:12:04.683Z,11.20
2023-03-21T07:14:32.129Z,10.53
2023-03-21T07:16:59.027Z,10.37
2023-03-21T07:19:26.298Z,11.70
2023-03-21T07:21:53.285Z,9.93
2023-03-21T07:24:19.806Z,11.07
2023-03-21T07:26:49.221Z,12.03
2023-03-21T07:29:17.513Z,11.00
2023-03-21T07:31:44.080Z,10.93
2023-03-21T07:34:10.772Z,11.07
2023-03-21T07:36:37.717Z,11.70
2023-03-21T07:39:04.893Z,12.33
2023-03-21T07:41:31.514Z,11.60
2023-03-21T07:43:58.046Z,11.30
2023-03-21T07:46:24.782Z,10.80
2023-03-21T07:48:51.441Z,10.60
2023-03-21T07:51:17.978Z,11.30
2023-03-21T07:53:48.464Z,9.83
2023-03-21T07:56:15.899Z,9.10
2023-03-21T07:58:42.695Z,9.43
2023-03-21T08:01:09.259Z,10.13
2023-03-21T08:03:35.899Z,8.83
2023-03-21T08:06:10.065Z,9.70
2023-03-21T08:08:36.910Z,9.07
2023-03-21T08:11:04.302Z,8.50
2023-03-21T08:13:30.939Z,9.33
2023-03-21T08:15:57.513Z,8.87
2023-03-21T08:18:24.187Z,9.70
2023-03-21T08:20:55.018Z,8.90
2023-03-21T08:23:21.589Z,8.87
2023-03-21T08:25:55.138Z,8.80
2023-03-21T08:28:22.672Z,9.20
2023-03-21T08:30:49.603Z,8.63
2023-03-21T08:33:18.724Z,9.73
2023-03-21T08:35:46.335Z,9.50
2023-03-21T08:38:13.384Z,10.30
2023-03-21T08:40:40.041Z,10.60
2023-03-21T08:43:06.906Z,11.20
2023-03-21T08:45:33.609Z,9.83
2023-03-21T08:48:00.274Z,12.10
2023-03-21T08:50:29.505Z,12.23
2023-03-21T08:52:56.262Z,13.80
2023-03-21T08:55:23.762Z,15.40
2023-03-21T08:57:50.628Z,12.20
2023-03-21T09:00:18.390Z,13.40
2023-03-21T09:02:46.798Z,12.40
2023-03-21T09:05:13.368Z,11.37
2023-03-21T09:07:41.597Z,11.90
2023-03-21T09:10:20.961Z,10.60
2023-03-21T09:12:52.640Z,11.37
2023-03-21T09:15:21.841Z,10.87
2023-03-21T09:17:52.992Z,11.30
2023-03-21T09:20:26.179Z,11.53
2023-03-21T09:22:53.746Z,10.93
2023-03-21T09:25:21.120Z,12.30
2023-03-21T09:27:47.954Z,11.63
2023-03-21T09:30:16.993Z,11.17
2023-03-21T09:32:47.352Z,11.30
2023-03-21T09:35:16.130Z,10.47
2023-03-21T09:37:43.009Z,9.53
2023-03-21T09:40:19.630Z,9.10
2023-03-21T09:43:06.232Z,8.00
2023-03-21T09:45:53.450Z,8.70
2023-03-21T09:48:31.766Z,9.27
2023-03-21T09:50:58.457Z,9.63
2023-03-21T09:53:33.859Z,10.90
2023-03-21T09:56:02.433Z,9.87
2023-03-21T09:58:42.168Z,8.60
2023-03-21T10:01:34.613Z,9.27
2023-03-21T10:04:05.519Z,11.33
2023-03-21T10:06:34.682Z,9.70
2023-03-21T10:09:07.621Z,10.20
2023-03-21T10:11:46.142Z,11.47
2023-03-21T10:14:27.753Z,11.30
2023-03-21T10:16:57.934Z,10.10
2023-03-21T10:19:25.164Z,9.70
2023-03-21T10:22:02.416Z,8.90
2023-03-21T10:24:32.602Z,9.90
2023-03-21T10:26:59.303Z,8.40
2023-03-21T10:29:31.731Z,12.27
2023-03-21T10:31:58.546Z,8.20
2023-03-21T10:34:32.265Z,10.97
2023-03-21T10:37:00.412Z,10.90
2023-03-21T10:39:29.914Z,8.80
2023-03-21T10:41:56.456Z,9.83
2023-03-21T10:44:29.485Z,8.87
2023-03-21T10:46:58.895Z,7.57
2023-03-21T10:49:26.777Z,7.90
2023-03-21T10:51:57.200Z,6.87
2023-03-21T10:54:29.055Z,9.00
2023-03-21T10:57:04.936Z,8.00
2023-03-21T10:59:38.840Z,7.50
2023-03-21T11:02:05.808Z,7.63
2023-03-21T11:04:33.291Z,6.50
2023-03-21T11:07:04.017Z,6.27
2023-03-21T11:09:55.573Z,5.73
2023-03-21T11:12:41.760Z,6.10
2023-03-21T11:15:31.449Z,5.40
2023-03-21T11:17:59.697Z,5.60
2023-03-21T11:20:29.865Z,5.27
2023-03-21T11:22:56.925Z,4.80
2023-03-21T11:25:38.551Z,6.30
2023-03-21T11:28:08.935Z,5.20
2023-03-21T11:30:35.764Z,5.63
2023-03-21T11:33:03.611Z,4.40
2023-03-21T11:35:38.947Z,5.37
2023-03-21T11:38:07.508Z,5.70
2023-03-21T11:40:36.579Z,5.10
2023-03-21T11:43:28.113Z,5.20
2023-03-21T11:46:14.126Z,5.37
2023-03-21T11:48:46.525Z,5.30
2023-03-21T11:51:28.150Z,6.07
2023-03-21T11:54:20.845Z,6.23
2023-03-21T11:56:57.084Z,5.50
2023-03-21T11:59:26.594Z,5.80
2023-03-21T12:02:14.583Z,6.00
2023-03-21T12:05:09.573Z,6.13
2023-03-21T12:07:57.446Z,5.83
2023-03-21T12:10:43.561Z,5.70
2023-03-21T12:13:44.465Z,5.30
2023-03-21T12:16:41.449Z,4.93
2023-03-21T12:19:20.788Z,5.30
2023-03-21T12:22:00.545Z,5.10
2023-03-21T12:24:33.233Z,4.27
2023-03-21T12:27:32.487Z,4.60
2023-03-21T12:30:24.271Z,4.93
2023-03-21T12:33:15.858Z,4.43
2023-03-21T12:36:01.457Z,4.60
2023-03-21T12:38:54.511Z,4.70
2023-03-21T12:41:27.375Z,3.97
2023-03-21T12:44:06.228Z,3.70
2023-03-21T12:46:47.657Z,3.30
2023-03-21T12:49:36.465Z,3.60
2023-03-21T12:52:06.714Z,3.83
2023-03-21T12:54:40.115Z,3.53
2023-03-21T12:57:14.785Z,3.90
2023-03-21T12:59:54.221Z,3.43
2023-03-21T13:02:20.709Z,3.80
2023-03-21T13:05:00.065Z,3.90
2023-03-21T13:07:29.794Z,4.03
2023-03-21T13:09:57.967Z,2.97
2023-03-21T13:12:30.550Z,3.03
2023-03-21T13:15:29.452Z,3.50
2023-03-21T13:18:31.304Z,2.93
2023-03-21T13:21:00.782Z,3.07
2023-03-21T13:23:35.803Z,2.87
2023-03-21T13:26:02.687Z,3.67
2023-03-21T13:28:31.292Z,2.63
2023-03-21T13:31:16.765Z,2.93
2023-03-21T13:33:49.189Z,2.77
2023-03-21T13:36:25.707Z,3.20
2023-03-21T13:38:54.885Z,3.00
2023-03-21T13:41:29.986Z,3.17
2023-03-21T13:44:02.798Z,2.67
2023-03-21T13:46:30.201Z,2.80
2023-03-21T13:49:07.809Z,2.53
2023-03-21T13:51:43.382Z,3.97
2023-03-21T13:54:18.833Z,3.80
2023-03-21T13:56:45.911Z,3.67
2023-03-21T13:59:32.728Z,3.67
2023-03-21T14:02:23.515Z,3.07
2023-03-21T14:05:04.928Z,2.77
2023-03-21T14:07:35.304Z,3.00
2023-03-21T14:10:06.454Z,3.27
2023-03-21T14:12:41.920Z,2.63
2023-03-21T14:15:23.120Z,2.57
2023-03-21T14:17:58.913Z,2.47
2023-03-21T14:20:26.884Z,4.07
2023-03-21T14:22:53.688Z,2.40
2023-03-21T14:25:21.975Z,2.60
2023-03-21T14:27:51.423Z,3.00
2023-03-21T14:30:29.522Z,2.53
2023-03-21T14:32:59.499Z,2.87
2023-03-21T14:35:31.230Z,2.80
2023-03-21T14:38:04.763Z,2.90
2023-03-21T14:40:31.445Z,2.70
2023-03-21T14:42:59.613Z,2.63
2023-03-21T14:45:30.649Z,2.40
2023-03-21T14:48:04.607Z,2.90
2023-03-21T14:50:40.467Z,2.73
2023-03-21T14:53:11.848Z,2.70
2023-03-21T14:55:46.687Z,2.50
2023-03-21T14:58:14.380Z,2.20
2023-03-21T15:00:41.253Z,2.87
2023-03-21T15:03:08.076Z,2.73
2023-03-21T15:05:38.596Z,2.90
2023-03-21T15:08:11.646Z,2.87
2023-03-21T15:10:38.794Z,2.57
2023-03-21T15:13:23.461Z,2.40
2023-03-21T15:15:50.177Z,3.10
2023-03-21T15:18:25.140Z,3.57
2023-03-21T15:20:52.991Z,3.13
2023-03-21T15:23:32.983Z,3.20
2023-03-21T15:26:02.864Z,2.90
2023-03-21T15:28:29.502Z,3.80
2023-03-21T15:30:56.698Z,4.17
2023-03-21T15:33:25.633Z,3.90
2023-03-21T15:35:55.568Z,3.00
2023-03-21T15:38:34.048Z,3.43
2023-03-21T15:41:23.699Z,3.00
2023-03-21T15:43:59.825Z,2.70
2023-03-21T15:46:34.723Z,3.13
2023-03-21T15:49:13.461Z,2.70
2023-03-21T15:52:14.954Z,2.97
2023-03-21T15:54:41.999Z,2.60
2023-03-21T15:57:24.078Z,2.73
2023-03-21T15:59:54.881Z,2.47
2023-03-21T16:02:23.152Z,3.20
2023-03-21T16:05:00.221Z,3.33
2023-03-21T16:07:26.982Z,2.70
2023-03-21T16:10:00.212Z,2.60
2023-03-21T16:12:27.431Z,3.30
2023-03-21T16:14:55.461Z,3.40
2023-03-21T16:17:39.512Z,3.30
2023-03-21T16:20:20.871Z,3.13
2023-03-21T16:22:48.156Z,3.17
2023-03-21T16:25:15.341Z,3.30
2023-03-21T16:27:42.286Z,3.17
2023-03-21T16:30:10.208Z,3.00
2023-03-21T16:32:37.782Z,3.03
2023-03-21T16:35:04.725Z,3.30
2023-03-21T16:37:31.331Z,2.20
2023-03-21T16:39:58.306Z,3.47
2023-03-21T16:42:24.901Z,4.17
2023-03-21T16:44:51.737Z,3.50
2023-03-21T16:47:20.687Z,4.20
2023-03-21T16:49:47.682Z,3.80
2023-03-21T16:52:14.568Z,4.90
2023-03-21T16:54:41.751Z,4.83
2023-03-21T16:57:22.857Z,4.50
2023-03-21T16:59:49.407Z,4.57
2023-03-21T17:02:18.946Z,4.27
2023-03-21T17:04:46.532Z,4.20
2023-03-21T17:07:16.482Z,5.10
2023-03-21T17:09:47.927Z,4.53
2023-03-21T17:12:16.366Z,4.60
2023-03-21T17:14:44.345Z,4.13
2023-03-21T17:17:12.684Z,4.23
2023-03-21T17:19:40.140Z,4.97
2023-03-21T17:22:07.091Z,4.07
2023-03-21T17:24:33.982Z,4.03
2023-03-21T17:27:01.698Z,4.10
2023-03-21T17:29:28.345Z,3.87
2023-03-21T17:31:54.989Z,4.17
2023-03-21T17:34:21.579Z,4.40
2023-03-21T17:36:49.083Z,4.43
2023-03-21T17:39:24.224Z,4.17
2023-03-21T17:41:52.012Z,4.40
2023-03-21T17:44:19.442Z,4.43
2023-03-21T17:46:46.469Z,4.70
2023-03-21T17:49:14.814Z,5.73
2023-03-21T17:51:41.663Z,5.13
2023-03-21T17:54:08.500Z,6.17
2023-03-21T17:56:37.456Z,5.13
2023-03-21T17:59:05.950Z,5.50
2023-03-21T18:01:32.628Z,5.63
2023-03-21T18:04:02.163Z,5.03
2023-03-21T18:06:28.727Z,7.30
2023-03-21T18:08:55.844Z,9.30
2023-03-21T18:11:23.994Z,10.33
2023-03-21T18:13:51.387Z,4.63
2023-03-21T18:16:21.588Z,4.33
2023-03-21T18:18:48.612Z,4.30
2023-03-21T18:21:18.936Z,4.23
2023-03-21T18:23:46.833Z,4.33
2023-03-21T18:26:17.488Z,4.07
2023-03-21T18:28:45.432Z,5.13
2023-03-21T18:31:19.245Z,4.57
2023-03-21T18:33:48.158Z,3.70
2023-03-21T18:36:24.466Z,4.37
2023-03-21T18:38:51.860Z,4.40
2023-03-21T18:41:19.711Z,3.93
2023-03-21T18:44:02.695Z,4.53
2023-03-21T18:46:33.270Z,4.00
2023-03-21T18:49:19.891Z,5.50
2023-03-21T18:51:47.888Z,4.17
2023-03-21T18:54:14.848Z,4.07
2023-03-21T18:59:32.502Z,4.93
2023-03-21T19:01:59.261Z,4.70
2023-03-21T19:04:30.291Z,4.13
2023-03-21T19:06:57.685Z,5.10
2023-03-21T19:09:29.363Z,4.93
2023-03-21T19:11:58.208Z,4.80
2023-03-21T19:14:24.813Z,4.73
2023-03-21T19:19:38.692Z,5.30
2023-03-21T19:22:05.242Z,5.67
2023-03-21T19:24:31.776Z,5.00
2023-03-21T19:26:58.481Z,5.60
2023-03-21T19:29:25.820Z,4.63
2023-03-21T19:31:53.202Z,5.93
2023-03-21T19:34:20.860Z,5.30
2023-03-21T19:36:51.597Z,5.60
2023-03-21T19:39:22.617Z,4.90
2023-03-21T19:41:55.410Z,5.30
2023-03-21T19:44:28.139Z,5.10
2023-03-21T19:46:54.648Z,6.37
2023-03-21T19:49:22.641Z,5.73
2023-03-21T19:51:52.696Z,5.60
2023-03-21T19:54:19.278Z,5.43
2023-03-21T19:56:47.933Z,5.20
2023-03-21T19:59:14.679Z,5.30
2023-03-21T20:01:41.903Z,5.03
2023-03-21T20:04:09.521Z,6.00
2023-03-21T20:06:36.784Z,5.63
2023-03-21T20:09:47.159Z,5.40
2023-03-21T20:11:50.349Z,6.17
2023-03-21T20:14:16.876Z,6.00
2023-03-21T20:16:43.958Z,6.07
2023-03-21T20:19:12.382Z,6.03
2023-03-21T20:21:53.365Z,6.13
2023-03-21T20:24:23.203Z,7.37
2023-03-21T20:26:53.416Z,5.70
2023-03-21T20:30:05.751Z,5.67
2023-03-21T20:32:07.070Z,6.53
2023-03-21T20:34:33.616Z,6.30
2023-03-21T20:37:00.403Z,6.33
2023-03-21T20:39:29.469Z,6.17
2023-03-21T20:41:58.932Z,5.57
2023-03-21T20:44:57.192Z,5.47
2023-03-21T20:47:13.432Z,5.47
2023-03-21T20:49:40.356Z,6.10
2023-03-21T20:54:53.928Z,5.67
2023-03-21T20:57:20.980Z,5.67
2023-03-21T20:59:47.671Z,7.80
2023-03-21T21:02:14.458Z,4.90
2023-03-21T21:05:17.311Z,6.33
2023-03-21T21:07:29.210Z,6.70
2023-03-21T21:09:55.898Z,6.33
2023-03-21T21:12:27.494Z,7.10
2023-03-21T21:14:57.427Z,6.70
2023-03-21T21:17:57.848Z,6.30
2023-03-21T21:20:18.501Z,6.30
2023-03-21T21:22:58.652Z,5.50
2023-03-21T21:25:26.613Z,5.30
2023-03-21T21:27:53.755Z,6.47
2023-03-21T21:30:21.002Z,5.73
2023-03-21T21:32:47.630Z,6.47
2023-03-21T21:35:14.581Z,6.57
2023-03-21T21:37:42.087Z,4.87
2023-03-21T21:40:13.023Z,7.60
2023-03-21T21:42:41.634Z,5.90
2023-03-21T21:45:09.679Z,4.70
2023-03-21T21:47:36.626Z,5.80
2023-03-21T21:50:03.694Z,5.90
2023-03-21T21:52:30.421Z,5.17
2023-03-21T21:54:56.985Z,4.77
2023-03-21T21:57:23.493Z,5.40
2023-03-21T21:59:54.289Z,5.33
2023-03-21T22:02:25.415Z,4.67
2023-03-21T22:04:57.079Z,5.53
2023-03-21T22:07:27.321Z,5.30
2023-03-21T22:09:54.550Z,5.80
2023-03-21T22:12:21.477Z,5.43
2023-03-21T22:14:48.036Z,5.70
2023-03-21T22:17:14.907Z,5.40
2023-03-21T22:19:41.704Z,5.77
2023-03-21T22:22:08.580Z,4.90
2023-03-21T22:24:35.841Z,5.70
2023-03-21T22:27:02.416Z,5.00
2023-03-21T22:29:29.824Z,5.57
2023-03-21T22:31:56.588Z,5.43
2023-03-21T22:34:24.640Z,5.20
2023-03-21T22:36:51.930Z,5.80
2023-03-21T22:39:19.978Z,5.20
2023-03-21T22:41:46.596Z,5.80
2023-03-21T22:44:13.509Z,6.20
2023-03-21T22:46:40.228Z,8.17
2023-03-21T22:49:09.300Z,7.27
2023-03-21T22:51:35.861Z,7.33
2023-03-21T22:54:02.593Z,7.60
2023-03-21T22:56:29.133Z,8.03
2023-03-21T22:58:57.092Z,8.00
2023-03-21T23:01:23.686Z,9.60
2023-03-21T23:03:50.243Z,10.00
2023-03-21T23:06:16.818Z,18.70
2023-03-21T23:08:43.289Z,14.40
2023-03-21T23:11:09.861Z,12.60
2023-03-21T23:13:41.786Z,12.73
2023-03-21T23:16:09.376Z,9.23
2023-03-21T23:18:37.030Z,7.43
2023-03-21T23:21:06.288Z,6.30
2023-03-21T23:23:36.737Z,6.10
2023-03-21T23:26:03.333Z,5.93
2023-03-21T23:28:29.884Z,6.23
2023-03-21T23:30:56.948Z,5.90
2023-03-21T23:33:23.556Z,5.87
2023-03-21T23:35:50.771Z,5.93
2023-03-21T23:38:17.331Z,5.77
2023-03-21T23:40:43.790Z,5.87
2023-03-21T23:43:10.413Z,6.30
2023-03-21T23:45:36.915Z,6.60
2023-03-21T23:48:03.794Z,6.67
2023-03-21T23:50:30.336Z,6.30
2023-03-21T23:52:56.888Z,7.30
2023-03-21T23:55:23.365Z,6.10
2023-03-21T23:57:58.736Z,6.63
